sensor_id;sensor_type;location;lat;lon;timestamp;P1;durP1;ratioP1;P2;durP2;ratioP2
56541;SDS011;42438;53.174;6.730;2024-02-21T00:01:15;12.80;;;4.20;;
56541;SDS011;42438;53.174;6.730;2024-02-21T00:03:46;13.73;;;4.30;;
56541;SDS011;42438;53.174;6.730;2024-02-21T00:06:17;10.95;;;3.90;;
56541;SDS011;42438;53.174;6.730;2024-02-21T00:08:47;14.95;;;4.28;;
56541;SDS011;42438;53.174;6.730;2024-02-21T00:11:18;12.75;;;5.32;;
56541;SDS011;42438;53.174;6.730;2024-02-21T00:13:49;16.67;;;3.78;;
56541;SDS011;42438;53.174;6.730;2024-02-21T00:16:20;12.93;;;4.38;;
56541;SDS011;42438;53.174;6.730;2024-02-21T00:18:51;16.58;;;4.50;;
56541;SDS011;42438;53.174;6.730;2024-02-21T00:21:22;16.00;;;4.55;;
56541;SDS011;42438;53.174;6.730;2024-02-21T00:23:52;15.70;;;4.78;;
56541;SDS011;42438;53.174;6.730;2024-02-21T00:26:23;14.50;;;3.95;;
56541;SDS011;42438;53.174;6.730;2024-02-21T00:28:53;13.02;;;4.05;;
56541;SDS011;42438;53.174;6.730;2024-02-21T00:31:24;12.73;;;4.15;;
56541;SDS011;42438;53.174;6.730;2024-02-21T00:33:55;11.95;;;4.50;;
56541;SDS011;42438;53.174;6.730;2024-02-21T00:36:25;11.93;;;4.13;;
56541;SDS011;42438;53.174;6.730;2024-02-21T00:38:56;16.13;;;4.65;;
56541;SDS011;42438;53.174;6.730;2024-02-21T00:41:27;21.23;;;4.43;;
56541;SDS011;42438;53.174;6.730;2024-02-21T00:43:57;15.27;;;3.70;;
56541;SDS011;42438;53.174;6.730;2024-02-21T00:46:28;11.85;;;4.13;;
56541;SDS011;42438;53.174;6.730;2024-02-21T00:48:59;11.27;;;3.78;;
56541;SDS011;42438;53.174;6.730;2024-02-21T00:51:29;12.73;;;4.50;;
56541;SDS011;42438;53.174;6.730;2024-02-21T00:54:00;17.27;;;5.53;;
56541;SDS011;42438;53.174;6.730;2024-02-21T00:56:31;14.10;;;4.22;;
56541;SDS011;42438;53.174;6.730;2024-02-21T00:59:02;17.63;;;5.05;;
56541;SDS011;42438;53.174;6.730;2024-02-21T01:01:32;12.95;;;4.95;;
56541;SDS011;42438;53.174;6.730;2024-02-21T01:04:03;13.70;;;4.50;;
56541;SDS011;42438;53.174;6.730;2024-02-21T01:06:34;18.45;;;5.45;;
56541;SDS011;42438;53.174;6.730;2024-02-21T01:09:04;16.42;;;4.38;;
56541;SDS011;42438;53.174;6.730;2024-02-21T01:11:35;16.85;;;4.97;;
56541;SDS011;42438;53.174;6.730;2024-02-21T01:14:06;14.48;;;5.32;;
56541;SDS011;42438;53.174;6.730;2024-02-21T01:16:36;15.88;;;5.38;;
56541;SDS011;42438;53.174;6.730;2024-02-21T01:19:08;16.90;;;6.30;;
56541;SDS011;42438;53.174;6.730;2024-02-21T01:21:38;12.23;;;5.40;;
56541;SDS011;42438;53.174;6.730;2024-02-21T01:24:09;12.00;;;4.85;;
56541;SDS011;42438;53.174;6.730;2024-02-21T01:26:40;17.33;;;5.72;;
56541;SDS011;42438;53.174;6.730;2024-02-21T01:29:11;12.77;;;5.60;;
56541;SDS011;42438;53.174;6.730;2024-02-21T01:31:41;17.58;;;4.93;;
56541;SDS011;42438;53.174;6.730;2024-02-21T01:34:12;17.80;;;6.10;;
56541;SDS011;42438;53.174;6.730;2024-02-21T01:36:43;16.88;;;5.63;;
56541;SDS011;42438;53.174;6.730;2024-02-21T01:39:14;13.65;;;5.18;;
56541;SDS011;42438;53.174;6.730;2024-02-21T01:41:45;18.95;;;5.95;;
56541;SDS011;42438;53.174;6.730;2024-02-21T01:44:15;12.80;;;5.80;;
56541;SDS011;42438;53.174;6.730;2024-02-21T01:46:46;16.65;;;6.80;;
56541;SDS011;42438;53.174;6.730;2024-02-21T01:49:17;25.63;;;6.38;;
56541;SDS011;42438;53.174;6.730;2024-02-21T01:51:49;15.98;;;5.65;;
56541;SDS011;42438;53.174;6.730;2024-02-21T01:54:20;15.38;;;5.85;;
56541;SDS011;42438;53.174;6.730;2024-02-21T01:56:51;17.17;;;5.60;;
56541;SDS011;42438;53.174;6.730;2024-02-21T01:59:22;14.80;;;5.20;;
56541;SDS011;42438;53.174;6.730;2024-02-21T02:01:53;13.13;;;5.75;;
56541;SDS011;42438;53.174;6.730;2024-02-21T02:06:57;10.52;;;4.78;;
56541;SDS011;42438;53.174;6.730;2024-02-21T02:09:32;10.30;;;4.68;;
56541;SDS011;42438;53.174;6.730;2024-02-21T02:12:03;14.60;;;5.82;;
56541;SDS011;42438;53.174;6.730;2024-02-21T02:14:34;12.30;;;5.25;;
56541;SDS011;42438;53.174;6.730;2024-02-21T02:17:05;16.38;;;5.53;;
56541;SDS011;42438;53.174;6.730;2024-02-21T02:19:35;16.17;;;6.03;;
56541;SDS011;42438;53.174;6.730;2024-02-21T02:22:09;15.73;;;5.82;;
56541;SDS011;42438;53.174;6.730;2024-02-21T02:24:45;16.33;;;5.97;;
56541;SDS011;42438;53.174;6.730;2024-02-21T02:27:16;15.43;;;6.32;;
56541;SDS011;42438;53.174;6.730;2024-02-21T02:29:46;13.93;;;5.25;;
56541;SDS011;42438;53.174;6.730;2024-02-21T02:32:17;12.52;;;5.38;;
56541;SDS011;42438;53.174;6.730;2024-02-21T02:34:48;15.95;;;5.88;;
56541;SDS011;42438;53.174;6.730;2024-02-21T02:37:18;15.02;;;5.72;;
56541;SDS011;42438;53.174;6.730;2024-02-21T02:39:49;18.08;;;5.88;;
56541;SDS011;42438;53.174;6.730;2024-02-21T02:42:20;16.67;;;6.25;;
56541;SDS011;42438;53.174;6.730;2024-02-21T02:44:50;13.63;;;5.47;;
56541;SDS011;42438;53.174;6.730;2024-02-21T02:47:21;15.10;;;6.30;;
56541;SDS011;42438;53.174;6.730;2024-02-21T02:49:51;13.38;;;6.13;;
56541;SDS011;42438;53.174;6.730;2024-02-21T02:52:22;18.35;;;6.38;;
56541;SDS011;42438;53.174;6.730;2024-02-21T02:54:53;12.95;;;5.65;;
56541;SDS011;42438;53.174;6.730;2024-02-21T02:57:25;15.70;;;5.47;;
56541;SDS011;42438;53.174;6.730;2024-02-21T02:59:56;14.93;;;6.32;;
56541;SDS011;42438;53.174;6.730;2024-02-21T03:02:27;12.88;;;5.53;;
56541;SDS011;42438;53.174;6.730;2024-02-21T03:04:57;17.52;;;6.15;;
56541;SDS011;42438;53.174;6.730;2024-02-21T03:07:28;19.75;;;6.20;;
56541;SDS011;42438;53.174;6.730;2024-02-21T03:09:59;20.58;;;6.93;;
56541;SDS011;42438;53.174;6.730;2024-02-21T03:12:29;18.77;;;6.18;;
56541;SDS011;42438;53.174;6.730;2024-02-21T03:15:00;19.50;;;7.60;;
56541;SDS011;42438;53.174;6.730;2024-02-21T03:17:32;20.35;;;7.88;;
56541;SDS011;42438;53.174;6.730;2024-02-21T03:20:04;15.88;;;6.07;;
56541;SDS011;42438;53.174;6.730;2024-02-21T03:22:38;17.75;;;7.40;;
56541;SDS011;42438;53.174;6.730;2024-02-21T03:25:09;20.15;;;7.40;;
56541;SDS011;42438;53.174;6.730;2024-02-21T03:27:40;19.75;;;6.80;;
56541;SDS011;42438;53.174;6.730;2024-02-21T03:30:11;19.27;;;7.93;;
56541;SDS011;42438;53.174;6.730;2024-02-21T03:32:43;16.73;;;6.70;;
56541;SDS011;42438;53.174;6.730;2024-02-21T03:35:13;23.75;;;8.23;;
56541;SDS011;42438;53.174;6.730;2024-02-21T03:37:47;19.73;;;7.32;;
56541;SDS011;42438;53.174;6.730;2024-02-21T03:40:18;22.52;;;7.72;;
56541;SDS011;42438;53.174;6.730;2024-02-21T03:42:48;16.85;;;7.22;;
56541;SDS011;42438;53.174;6.730;2024-02-21T03:45:19;26.35;;;8.00;;
56541;SDS011;42438;53.174;6.730;2024-02-21T03:47:49;21.17;;;8.38;;
56541;SDS011;42438;53.174;6.730;2024-02-21T03:50:20;20.23;;;7.68;;
56541;SDS011;42438;53.174;6.730;2024-02-21T03:52:51;17.52;;;7.57;;
56541;SDS011;42438;53.174;6.730;2024-02-21T03:55:21;20.55;;;7.70;;
56541;SDS011;42438;53.174;6.730;2024-02-21T03:57:52;21.02;;;8.10;;
56541;SDS011;42438;53.174;6.730;2024-02-21T04:00:23;24.00;;;8.35;;
56541;SDS011;42438;53.174;6.730;2024-02-21T04:02:53;27.70;;;8.85;;
56541;SDS011;42438;53.174;6.730;2024-02-21T04:05:25;25.23;;;8.32;;
56541;SDS011;42438;53.174;6.730;2024-02-21T04:07:56;21.45;;;8.52;;
56541;SDS011;42438;53.174;6.730;2024-02-21T04:10:27;20.83;;;8.57;;
56541;SDS011;42438;53.174;6.730;2024-02-21T04:12:57;21.98;;;7.80;;
56541;SDS011;42438;53.174;6.730;2024-02-21T04:15:28;25.17;;;8.00;;
56541;SDS011;42438;53.174;6.730;2024-02-21T04:17:58;25.73;;;7.95;;
56541;SDS011;42438;53.174;6.730;2024-02-21T04:20:29;23.98;;;8.05;;
56541;SDS011;42438;53.174;6.730;2024-02-21T04:23:00;22.33;;;8.00;;
56541;SDS011;42438;53.174;6.730;2024-02-21T04:25:31;23.98;;;8.85;;
56541;SDS011;42438;53.174;6.730;2024-02-21T04:28:01;18.27;;;6.95;;
56541;SDS011;42438;53.174;6.730;2024-02-21T04:30:32;15.50;;;6.65;;
56541;SDS011;42438;53.174;6.730;2024-02-21T04:33:03;21.73;;;7.40;;
56541;SDS011;42438;53.174;6.730;2024-02-21T04:35:35;17.75;;;7.53;;
56541;SDS011;42438;53.174;6.730;2024-02-21T04:38:06;21.20;;;7.05;;
56541;SDS011;42438;53.174;6.730;2024-02-21T04:40:37;18.48;;;7.25;;
56541;SDS011;42438;53.174;6.730;2024-02-21T04:43:08;17.25;;;6.93;;
56541;SDS011;42438;53.174;6.730;2024-02-21T04:45:38;23.58;;;7.75;;
56541;SDS011;42438;53.174;6.730;2024-02-21T04:48:09;19.63;;;6.72;;
56541;SDS011;42438;53.174;6.730;2024-02-21T04:50:39;19.02;;;6.85;;
56541;SDS011;42438;53.174;6.730;2024-02-21T04:53:11;18.52;;;6.75;;
56541;SDS011;42438;53.174;6.730;2024-02-21T04:55:41;15.40;;;6.88;;
56541;SDS011;42438;53.174;6.730;2024-02-21T04:58:12;14.90;;;6.65;;
56541;SDS011;42438;53.174;6.730;2024-02-21T05:00:43;20.63;;;6.43;;
56541;SDS011;42438;53.174;6.730;2024-02-21T05:03:13;21.00;;;7.10;;
56541;SDS011;42438;53.174;6.730;2024-02-21T05:05:44;17.30;;;7.13;;
56541;SDS011;42438;53.174;6.730;2024-02-21T05:08:15;21.88;;;6.45;;
56541;SDS011;42438;53.174;6.730;2024-02-21T05:10:47;23.55;;;7.07;;
56541;SDS011;42438;53.174;6.730;2024-02-21T05:13:17;21.10;;;6.82;;
56541;SDS011;42438;53.174;6.730;2024-02-21T05:15:48;21.35;;;6.72;;
56541;SDS011;42438;53.174;6.730;2024-02-21T05:18:18;14.82;;;6.53;;
56541;SDS011;42438;53.174;6.730;2024-02-21T05:20:50;18.30;;;7.50;;
56541;SDS011;42438;53.174;6.730;2024-02-21T05:23:21;19.73;;;7.30;;
56541;SDS011;42438;53.174;6.730;2024-02-21T05:25:51;21.63;;;7.07;;
56541;SDS011;42438;53.174;6.730;2024-02-21T05:28:22;21.80;;;6.47;;
56541;SDS011;42438;53.174;6.730;2024-02-21T05:30:53;19.15;;;6.43;;
56541;SDS011;42438;53.174;6.730;2024-02-21T05:33:24;20.13;;;6.00;;
56541;SDS011;42438;53.174;6.730;2024-02-21T05:35:55;19.38;;;5.82;;
56541;SDS011;42438;53.174;6.730;2024-02-21T05:38:25;20.58;;;6.63;;
56541;SDS011;42438;53.174;6.730;2024-02-21T05:40:56;20.02;;;6.53;;
56541;SDS011;42438;53.174;6.730;2024-02-21T05:43:27;24.10;;;7.57;;
56541;SDS011;42438;53.174;6.730;2024-02-21T05:45:58;17.42;;;7.55;;
56541;SDS011;42438;53.174;6.730;2024-02-21T05:48:28;20.13;;;7.07;;
56541;SDS011;42438;53.174;6.730;2024-02-21T05:51:01;19.42;;;6.53;;
56541;SDS011;42438;53.174;6.730;2024-02-21T05:53:33;21.90;;;7.22;;
56541;SDS011;42438;53.174;6.730;2024-02-21T05:56:05;21.52;;;6.68;;
56541;SDS011;42438;53.174;6.730;2024-02-21T05:58:41;19.90;;;6.68;;
56541;SDS011;42438;53.174;6.730;2024-02-21T06:01:12;24.88;;;7.75;;
56541;SDS011;42438;53.174;6.730;2024-02-21T06:03:42;19.38;;;7.68;;
56541;SDS011;42438;53.174;6.730;2024-02-21T06:06:13;19.58;;;7.32;;
56541;SDS011;42438;53.174;6.730;2024-02-21T06:08:47;20.77;;;7.07;;
56541;SDS011;42438;53.174;6.730;2024-02-21T06:11:18;26.55;;;7.18;;
56541;SDS011;42438;53.174;6.730;2024-02-21T06:13:48;24.58;;;7.68;;
56541;SDS011;42438;53.174;6.730;2024-02-21T06:16:19;19.83;;;7.15;;
56541;SDS011;42438;53.174;6.730;2024-02-21T06:18:50;15.48;;;7.10;;
56541;SDS011;42438;53.174;6.730;2024-02-21T06:21:20;27.60;;;7.10;;
56541;SDS011;42438;53.174;6.730;2024-02-21T06:23:51;19.77;;;7.35;;
56541;SDS011;42438;53.174;6.730;2024-02-21T06:26:22;24.83;;;7.28;;
56541;SDS011;42438;53.174;6.730;2024-02-21T06:28:52;22.65;;;7.43;;
56541;SDS011;42438;53.174;6.730;2024-02-21T06:31:23;21.17;;;7.07;;
56541;SDS011;42438;53.174;6.730;2024-02-21T06:33:53;22.02;;;6.63;;
56541;SDS011;42438;53.174;6.730;2024-02-21T06:36:24;26.20;;;7.68;;
56541;SDS011;42438;53.174;6.730;2024-02-21T06:38:55;18.65;;;6.85;;
56541;SDS011;42438;53.174;6.730;2024-02-21T06:41:25;22.50;;;6.90;;
56541;SDS011;42438;53.174;6.730;2024-02-21T06:43:56;27.55;;;7.97;;
56541;SDS011;42438;53.174;6.730;2024-02-21T06:46:27;19.80;;;8.60;;
56541;SDS011;42438;53.174;6.730;2024-02-21T06:49:03;29.42;;;8.35;;
56541;SDS011;42438;53.174;6.730;2024-02-21T06:51:34;22.38;;;8.20;;
56541;SDS011;42438;53.174;6.730;2024-02-21T06:54:05;22.58;;;7.80;;
56541;SDS011;42438;53.174;6.730;2024-02-21T06:56:35;29.48;;;9.30;;
56541;SDS011;42438;53.174;6.730;2024-02-21T06:59:07;28.58;;;8.45;;
56541;SDS011;42438;53.174;6.730;2024-02-21T07:01:37;30.10;;;9.15;;
56541;SDS011;42438;53.174;6.730;2024-02-21T07:04:08;25.33;;;8.60;;
56541;SDS011;42438;53.174;6.730;2024-02-21T07:06:39;23.55;;;10.02;;
56541;SDS011;42438;53.174;6.730;2024-02-21T07:09:09;29.73;;;11.55;;
56541;SDS011;42438;53.174;6.730;2024-02-21T07:11:40;34.17;;;12.50;;
56541;SDS011;42438;53.174;6.730;2024-02-21T07:14:10;35.42;;;12.73;;
56541;SDS011;42438;53.174;6.730;2024-02-21T07:16:41;35.85;;;13.15;;
56541;SDS011;42438;53.174;6.730;2024-02-21T07:19:12;33.50;;;12.52;;
56541;SDS011;42438;53.174;6.730;2024-02-21T07:21:42;37.15;;;12.77;;
56541;SDS011;42438;53.174;6.730;2024-02-21T07:24:13;36.97;;;14.18;;
56541;SDS011;42438;53.174;6.730;2024-02-21T07:26:44;40.88;;;14.45;;
56541;SDS011;42438;53.174;6.730;2024-02-21T07:29:14;44.40;;;12.50;;
56541;SDS011;42438;53.174;6.730;2024-02-21T07:31:45;41.58;;;13.05;;
56541;SDS011;42438;53.174;6.730;2024-02-21T07:34:16;36.03;;;12.00;;
56541;SDS011;42438;53.174;6.730;2024-02-21T07:36:47;40.42;;;10.90;;
56541;SDS011;42438;53.174;6.730;2024-02-21T07:39:17;34.70;;;10.88;;
56541;SDS011;42438;53.174;6.730;2024-02-21T07:41:48;38.47;;;10.20;;
56541;SDS011;42438;53.174;6.730;2024-02-21T07:44:19;29.83;;;9.98;;
56541;SDS011;42438;53.174;6.730;2024-02-21T07:46:49;27.60;;;8.43;;
56541;SDS011;42438;53.174;6.730;2024-02-21T07:49:20;29.08;;;8.52;;
56541;SDS011;42438;53.174;6.730;2024-02-21T07:51:51;31.33;;;8.73;;
56541;SDS011;42438;53.174;6.730;2024-02-21T07:54:22;21.58;;;7.32;;
56541;SDS011;42438;53.174;6.730;2024-02-21T07:56:53;27.85;;;7.97;;
56541;SDS011;42438;53.174;6.730;2024-02-21T07:59:24;22.38;;;7.22;;
56541;SDS011;42438;53.174;6.730;2024-02-21T08:01:58;18.70;;;7.07;;
56541;SDS011;42438;53.174;6.730;2024-02-21T08:04:28;20.42;;;7.68;;
56541;SDS011;42438;53.174;6.730;2024-02-21T08:06:59;19.83;;;7.68;;
56541;SDS011;42438;53.174;6.730;2024-02-21T08:09:32;25.63;;;7.85;;
56541;SDS011;42438;53.174;6.730;2024-02-21T08:12:03;21.10;;;8.07;;
56541;SDS011;42438;53.174;6.730;2024-02-21T08:14:34;26.10;;;6.80;;
56541;SDS011;42438;53.174;6.730;2024-02-21T08:17:05;20.17;;;6.70;;
56541;SDS011;42438;53.174;6.730;2024-02-21T08:19:36;23.70;;;7.03;;
56541;SDS011;42438;53.174;6.730;2024-02-21T08:22:06;19.67;;;6.25;;
56541;SDS011;42438;53.174;6.730;2024-02-21T08:24:37;15.07;;;5.97;;
56541;SDS011;42438;53.174;6.730;2024-02-21T08:27:08;17.60;;;6.07;;
56541;SDS011;42438;53.174;6.730;2024-02-21T08:29:38;17.17;;;5.57;;
56541;SDS011;42438;53.174;6.730;2024-02-21T08:32:09;17.83;;;5.85;;
56541;SDS011;42438;53.174;6.730;2024-02-21T08:34:40;16.25;;;5.32;;
56541;SDS011;42438;53.174;6.730;2024-02-21T08:37:10;16.73;;;6.22;;
56541;SDS011;42438;53.174;6.730;2024-02-21T08:39:41;17.55;;;5.93;;
56541;SDS011;42438;53.174;6.730;2024-02-21T08:42:12;18.35;;;6.45;;
56541;SDS011;42438;53.174;6.730;2024-02-21T08:44:42;25.95;;;7.38;;
56541;SDS011;42438;53.174;6.730;2024-02-21T08:47:13;17.20;;;6.93;;
56541;SDS011;42438;53.174;6.730;2024-02-21T08:49:44;19.98;;;6.55;;
56541;SDS011;42438;53.174;6.730;2024-02-21T08:52:15;20.80;;;6.95;;
56541;SDS011;42438;53.174;6.730;2024-02-21T08:54:46;23.10;;;6.97;;
56541;SDS011;42438;53.174;6.730;2024-02-21T08:57:16;25.52;;;8.43;;
56541;SDS011;42438;53.174;6.730;2024-02-21T08:59:48;23.17;;;8.93;;
56541;SDS011;42438;53.174;6.730;2024-02-21T09:02:19;27.38;;;9.82;;
56541;SDS011;42438;53.174;6.730;2024-02-21T09:04:50;23.67;;;9.77;;
56541;SDS011;42438;53.174;6.730;2024-02-21T09:07:20;26.95;;;10.25;;
56541;SDS011;42438;53.174;6.730;2024-02-21T09:09:51;27.70;;;10.63;;
56541;SDS011;42438;53.174;6.730;2024-02-21T09:12:22;29.10;;;10.70;;
56541;SDS011;42438;53.174;6.730;2024-02-21T09:14:52;23.00;;;11.25;;
56541;SDS011;42438;53.174;6.730;2024-02-21T09:17:23;26.00;;;10.60;;
56541;SDS011;42438;53.174;6.730;2024-02-21T09:19:55;24.52;;;11.15;;
56541;SDS011;42438;53.174;6.730;2024-02-21T09:22:29;27.05;;;10.35;;
56541;SDS011;42438;53.174;6.730;2024-02-21T09:25:01;30.08;;;11.40;;
56541;SDS011;42438;53.174;6.730;2024-02-21T09:27:33;26.33;;;10.88;;
56541;SDS011;42438;53.174;6.730;2024-02-21T09:30:04;29.10;;;12.32;;
56541;SDS011;42438;53.174;6.730;2024-02-21T09:32:36;30.25;;;11.43;;
56541;SDS011;42438;53.174;6.730;2024-02-21T09:35:07;24.52;;;10.82;;
56541;SDS011;42438;53.174;6.730;2024-02-21T09:37:38;21.42;;;11.23;;
56541;SDS011;42438;53.174;6.730;2024-02-21T09:40:09;26.77;;;11.00;;
56541;SDS011;42438;53.174;6.730;2024-02-21T09:42:41;25.15;;;10.80;;
56541;SDS011;42438;53.174;6.730;2024-02-21T09:50:51;23.55;;;11.23;;
56541;SDS011;42438;53.174;6.730;2024-02-21T09:53:24;26.63;;;12.30;;
56541;SDS011;42438;53.174;6.730;2024-02-21T09:55:54;22.10;;;11.80;;
56541;SDS011;42438;53.174;6.730;2024-02-21T09:58:26;24.35;;;11.20;;
56541;SDS011;42438;53.174;6.730;2024-02-21T10:00:58;35.25;;;13.57;;
56541;SDS011;42438;53.174;6.730;2024-02-21T10:03:30;27.98;;;12.05;;
56541;SDS011;42438;53.174;6.730;2024-02-21T10:06:00;25.27;;;11.40;;
56541;SDS011;42438;53.174;6.730;2024-02-21T10:08:32;28.60;;;13.25;;
56541;SDS011;42438;53.174;6.730;2024-02-21T10:11:03;26.17;;;13.90;;
56541;SDS011;42438;53.174;6.730;2024-02-21T10:13:33;28.30;;;12.95;;
56541;SDS011;42438;53.174;6.730;2024-02-21T10:16:08;27.13;;;14.48;;
56541;SDS011;42438;53.174;6.730;2024-02-21T10:18:38;25.65;;;13.30;;
56541;SDS011;42438;53.174;6.730;2024-02-21T10:21:09;30.92;;;14.57;;
56541;SDS011;42438;53.174;6.730;2024-02-21T10:23:43;27.52;;;13.40;;
56541;SDS011;42438;53.174;6.730;2024-02-21T10:26:16;29.80;;;13.68;;
56541;SDS011;42438;53.174;6.730;2024-02-21T10:28:47;25.73;;;13.50;;
56541;SDS011;42438;53.174;6.730;2024-02-21T10:31:24;27.00;;;13.35;;
56541;SDS011;42438;53.174;6.730;2024-02-21T10:33:56;35.58;;;14.38;;
56541;SDS011;42438;53.174;6.730;2024-02-21T10:36:28;31.70;;;14.85;;
56541;SDS011;42438;53.174;6.730;2024-02-21T10:38:59;27.45;;;14.63;;
56541;SDS011;42438;53.174;6.730;2024-02-21T10:41:30;32.60;;;15.10;;
56541;SDS011;42438;53.174;6.730;2024-02-21T10:44:02;31.60;;;14.45;;
56541;SDS011;42438;53.174;6.730;2024-02-21T10:46:35;31.70;;;15.43;;
56541;SDS011;42438;53.174;6.730;2024-02-21T10:49:10;28.33;;;14.90;;
56541;SDS011;42438;53.174;6.730;2024-02-21T10:51:45;29.45;;;14.40;;
56541;SDS011;42438;53.174;6.730;2024-02-21T10:57:11;32.17;;;13.48;;
56541;SDS011;42438;53.174;6.730;2024-02-21T10:59:44;26.73;;;13.85;;
56541;SDS011;42438;53.174;6.730;2024-02-21T11:02:15;24.17;;;13.95;;
56541;SDS011;42438;53.174;6.730;2024-02-21T11:04:46;28.80;;;14.35;;
56541;SDS011;42438;53.174;6.730;2024-02-21T11:07:17;24.65;;;13.68;;
56541;SDS011;42438;53.174;6.730;2024-02-21T11:09:52;27.23;;;13.25;;
56541;SDS011;42438;53.174;6.730;2024-02-21T11:12:25;22.10;;;12.07;;
56541;SDS011;42438;53.174;6.730;2024-02-21T11:15:04;24.15;;;12.70;;
56541;SDS011;42438;53.174;6.730;2024-02-21T11:17:38;23.15;;;12.27;;
56541;SDS011;42438;53.174;6.730;2024-02-21T11:20:10;22.95;;;12.57;;
56541;SDS011;42438;53.174;6.730;2024-02-21T11:22:44;26.73;;;12.38;;
56541;SDS011;42438;53.174;6.730;2024-02-21T11:25:21;25.23;;;12.13;;
56541;SDS011;42438;53.174;6.730;2024-02-21T11:28:01;20.98;;;11.23;;
56541;SDS011;42438;53.174;6.730;2024-02-21T11:30:36;24.27;;;11.38;;
56541;SDS011;42438;53.174;6.730;2024-02-21T11:33:08;21.45;;;11.07;;
56541;SDS011;42438;53.174;6.730;2024-02-21T11:35:38;20.92;;;10.82;;
56541;SDS011;42438;53.174;6.730;2024-02-21T11:38:12;17.48;;;10.13;;
56541;SDS011;42438;53.174;6.730;2024-02-21T11:40:46;19.27;;;10.98;;
56541;SDS011;42438;53.174;6.730;2024-02-21T11:43:17;23.25;;;10.88;;
56541;SDS011;42438;53.174;6.730;2024-02-21T11:45:47;23.13;;;10.52;;
56541;SDS011;42438;53.174;6.730;2024-02-21T11:48:18;19.00;;;10.43;;
56541;SDS011;42438;53.174;6.730;2024-02-21T11:50:53;17.83;;;9.82;;
56541;SDS011;42438;53.174;6.730;2024-02-21T11:53:25;20.05;;;9.93;;
56541;SDS011;42438;53.174;6.730;2024-02-21T11:56:00;20.38;;;9.48;;
56541;SDS011;42438;53.174;6.730;2024-02-21T11:58:31;18.50;;;9.77;;
56541;SDS011;42438;53.174;6.730;2024-02-21T12:01:02;19.00;;;9.88;;
56541;SDS011;42438;53.174;6.730;2024-02-21T12:03:34;14.75;;;9.15;;
56541;SDS011;42438;53.174;6.730;2024-02-21T12:06:08;17.05;;;8.43;;
56541;SDS011;42438;53.174;6.730;2024-02-21T12:08:43;16.48;;;8.27;;
56541;SDS011;42438;53.174;6.730;2024-02-21T12:11:21;17.52;;;8.55;;
56541;SDS011;42438;53.174;6.730;2024-02-21T12:14:01;16.20;;;8.30;;
56541;SDS011;42438;53.174;6.730;2024-02-21T12:19:09;16.58;;;7.68;;
56541;SDS011;42438;53.174;6.730;2024-02-21T12:21:40;18.02;;;9.07;;
56541;SDS011;42438;53.174;6.730;2024-02-21T12:24:13;17.27;;;8.02;;
56541;SDS011;42438;53.174;6.730;2024-02-21T12:26:51;14.05;;;8.07;;
56541;SDS011;42438;53.174;6.730;2024-02-21T12:29:24;14.10;;;7.82;;
56541;SDS011;42438;53.174;6.730;2024-02-21T12:31:55;15.90;;;9.00;;
56541;SDS011;42438;53.174;6.730;2024-02-21T12:34:26;17.65;;;8.27;;
56541;SDS011;42438;53.174;6.730;2024-02-21T12:36:57;16.27;;;9.35;;
56541;SDS011;42438;53.174;6.730;2024-02-21T12:39:28;17.15;;;8.57;;
56541;SDS011;42438;53.174;6.730;2024-02-21T12:41:59;17.98;;;8.57;;
56541;SDS011;42438;53.174;6.730;2024-02-21T12:44:30;14.45;;;7.90;;
56541;SDS011;42438;53.174;6.730;2024-02-21T12:47:01;16.83;;;8.13;;
56541;SDS011;42438;53.174;6.730;2024-02-21T12:49:32;15.25;;;7.85;;
56541;SDS011;42438;53.174;6.730;2024-02-21T12:52:03;15.90;;;8.73;;
56541;SDS011;42438;53.174;6.730;2024-02-21T12:54:34;14.65;;;8.73;;
56541;SDS011;42438;53.174;6.730;2024-02-21T12:57:05;15.75;;;7.43;;
56541;SDS011;42438;53.174;6.730;2024-02-21T12:59:35;15.25;;;8.13;;
56541;SDS011;42438;53.174;6.730;2024-02-21T13:02:06;14.10;;;7.47;;
56541;SDS011;42438;53.174;6.730;2024-02-21T13:04:38;14.07;;;7.97;;
56541;SDS011;42438;53.174;6.730;2024-02-21T13:07:10;14.25;;;7.60;;
56541;SDS011;42438;53.174;6.730;2024-02-21T13:09:41;15.18;;;8.20;;
56541;SDS011;42438;53.174;6.730;2024-02-21T13:12:12;19.50;;;10.68;;
56541;SDS011;42438;53.174;6.730;2024-02-21T13:14:42;13.18;;;7.90;;
56541;SDS011;42438;53.174;6.730;2024-02-21T13:17:14;13.05;;;7.10;;
56541;SDS011;42438;53.174;6.730;2024-02-21T13:19:46;13.15;;;6.82;;
56541;SDS011;42438;53.174;6.730;2024-02-21T13:22:17;12.50;;;6.25;;
56541;SDS011;42438;53.174;6.730;2024-02-21T13:24:50;10.95;;;6.05;;
56541;SDS011;42438;53.174;6.730;2024-02-21T13:27:20;9.88;;;5.30;;
56541;SDS011;42438;53.174;6.730;2024-02-21T13:29:51;10.50;;;6.13;;
56541;SDS011;42438;53.174;6.730;2024-02-21T13:32:23;12.90;;;6.10;;
56541;SDS011;42438;53.174;6.730;2024-02-21T13:34:53;10.35;;;5.80;;
56541;SDS011;42438;53.174;6.730;2024-02-21T13:37:24;10.02;;;5.00;;
56541;SDS011;42438;53.174;6.730;2024-02-21T13:39:55;9.45;;;5.10;;
56541;SDS011;42438;53.174;6.730;2024-02-21T13:42:26;8.35;;;4.65;;
56541;SDS011;42438;53.174;6.730;2024-02-21T13:44:57;8.32;;;4.75;;
56541;SDS011;42438;53.174;6.730;2024-02-21T13:47:28;9.70;;;5.05;;
56541;SDS011;42438;53.174;6.730;2024-02-21T13:49:59;8.63;;;4.50;;
56541;SDS011;42438;53.174;6.730;2024-02-21T13:52:30;9.60;;;4.70;;
56541;SDS011;42438;53.174;6.730;2024-02-21T13:55:01;9.00;;;5.78;;
56541;SDS011;42438;53.174;6.730;2024-02-21T13:57:32;8.25;;;4.60;;
56541;SDS011;42438;53.174;6.730;2024-02-21T14:00:03;9.02;;;4.68;;
56541;SDS011;42438;53.174;6.730;2024-02-21T14:02:35;10.60;;;4.53;;
56541;SDS011;42438;53.174;6.730;2024-02-21T14:05:06;10.98;;;4.90;;
56541;SDS011;42438;53.174;6.730;2024-02-21T14:07:37;7.10;;;4.13;;
56541;SDS011;42438;53.174;6.730;2024-02-21T14:10:08;10.32;;;4.53;;
56541;SDS011;42438;53.174;6.730;2024-02-21T14:12:39;8.52;;;4.50;;
56541;SDS011;42438;53.174;6.730;2024-02-21T14:15:10;10.20;;;5.10;;
56541;SDS011;42438;53.174;6.730;2024-02-21T14:17:41;10.80;;;4.88;;
56541;SDS011;42438;53.174;6.730;2024-02-21T14:20:11;8.15;;;4.70;;
56541;SDS011;42438;53.174;6.730;2024-02-21T14:22:44;9.23;;;4.83;;
56541;SDS011;42438;53.174;6.730;2024-02-21T14:25:14;11.25;;;5.10;;
56541;SDS011;42438;53.174;6.730;2024-02-21T14:27:45;13.18;;;5.35;;
56541;SDS011;42438;53.174;6.730;2024-02-21T14:30:16;9.60;;;4.82;;
56541;SDS011;42438;53.174;6.730;2024-02-21T14:32:47;13.20;;;5.88;;
56541;SDS011;42438;53.174;6.730;2024-02-21T14:35:17;12.88;;;5.07;;
56541;SDS011;42438;53.174;6.730;2024-02-21T14:37:48;10.32;;;5.07;;
56541;SDS011;42438;53.174;6.730;2024-02-21T14:40:19;9.82;;;4.97;;
56541;SDS011;42438;53.174;6.730;2024-02-21T14:42:50;9.30;;;5.10;;
56541;SDS011;42438;53.174;6.730;2024-02-21T14:45:22;12.23;;;5.72;;
56541;SDS011;42438;53.174;6.730;2024-02-21T14:47:53;11.27;;;6.20;;
56541;SDS011;42438;53.174;6.730;2024-02-21T14:50:23;9.60;;;5.65;;
56541;SDS011;42438;53.174;6.730;2024-02-21T14:52:54;9.10;;;5.57;;
56541;SDS011;42438;53.174;6.730;2024-02-21T14:55:25;10.80;;;4.88;;
56541;SDS011;42438;53.174;6.730;2024-02-21T14:57:56;10.20;;;5.03;;
56541;SDS011;42438;53.174;6.730;2024-02-21T15:00:26;9.73;;;5.20;;
56541;SDS011;42438;53.174;6.730;2024-02-21T15:03:00;10.32;;;5.32;;
56541;SDS011;42438;53.174;6.730;2024-02-21T15:05:32;8.90;;;5.30;;
56541;SDS011;42438;53.174;6.730;2024-02-21T15:08:03;14.20;;;5.07;;
56541;SDS011;42438;53.174;6.730;2024-02-21T15:10:34;12.05;;;5.93;;